Flight Track Log - Related Links

Times and Time Zones

All times are in EDT time to prevent confusion due to time zone crossing. See the RPA3392 flight status page for this flight to view local times or setup timezone preferences in your user account.

Time Position Orientation Groundspeed Altitude Reporting Facility
EDT Latitude Longitude Course Direction KTS MPH feet Rate Location/Type
Thu 10:52:21 PM 38.8167 -77.0333 339° North 152 175 1,400  Level Potomac TRACON
Thu 10:53:21 PM 38.7833 -77.0667 218° Southwest 227 261 2,800 1,842 Climbing Potomac TRACON
Thu 10:54:15 PM 38.7667 -77.1333 252° West 232 267 4,900 2,500 Climbing Potomac TRACON
Thu 10:55:00 PM 39.3400 -77.2926 337° Northwest  Level FlightAware Approximate
Thu 10:55:21 PM 38.7500 -77.2333 258° West 265 305 7,800  Level Potomac TRACON
Thu 10:56:00 PM 39.4649 -77.3658 339° North  Level FlightAware Approximate
Thu 10:56:21 PM 38.7333 -77.3167 256° West 280 322 10,200  Level Potomac TRACON
Thu 10:57:00 PM 39.5929 -77.4298 339° North  Level FlightAware Approximate
Thu 10:57:21 PM 38.7833 -77.4000 308° West 317 365 11,000  Level Potomac TRACON
Thu 10:58:27 PM 38.8833 -77.4333 345° North 301 346 11,100 619 Climbing Potomac TRACON
Thu 10:59:27 PM 38.9500 -77.4500 349° North 268 308 12,300 2,000 Climbing Potomac TRACON
Thu 11:00:21 PM 39.0333 -77.5000 335° Northwest 291 335 14,900 2,312 Climbing Potomac TRACON
Thu 11:01:16 PM 39.1167 -77.5667 328° Northwest 325 374 16,500 1,388 Climbing Potomac TRACON
Thu 11:02:48 PM 39.2333 -77.6522 330° Northwest 328 377 18,300 1,169 Climbing Washington Center
Thu 11:03:50 PM 39.3178 -77.7136 331° Northwest 328 377 19,500 1,200 Climbing Washington Center
Thu 11:04:48 PM 39.4064 -77.7781 331° Northwest 338 389 20,700 1,250 Climbing Washington Center
Thu 11:05:50 PM 39.4947 -77.8425 331° Northwest 350 403 22,000 1,350 Climbing Washington Center
Thu 11:06:48 PM 39.5789 -77.9044 330° Northwest 371 427 23,400 1,276 Climbing Washington Center
Thu 11:07:57 PM 39.6958 -77.9903 331° Northwest 377 434 24,700 1,154 Climbing Cleveland Center
Thu 11:08:58 PM 39.7911 -78.0597 331° Northwest 384 442 25,900 1,150 Climbing Cleveland Center
Thu 11:09:57 PM 39.9000 -78.0825 351° North 392 451 27,000 1,160 Climbing Cleveland Center
Thu 11:10:57 PM 40.0206 -78.0700 North 392 451 28,200 1,000 Climbing Cleveland Center
Thu 11:11:57 PM 40.1353 -78.0631 North 403 464 29,000 485 Climbing Cleveland Center
Thu 11:12:36 PM 40.2119 -78.0533 North 414 476 29,000  Level New York Center
Thu 11:13:38 PM 40.3333 -78.0442 North 446 513 29,000  Level New York Center
Thu 11:14:38 PM 40.4528 -78.0350 North 440 506 29,000  Level New York Center
Thu 11:15:36 PM 40.5597 -78.0244 North 435 501 29,000  Level New York Center
Thu 11:16:37 PM 40.6772 -78.0150 North 425 489 29,000  Level New York Center
Thu 11:17:38 PM 40.7947 -78.0028 North 425 489 29,000  Level New York Center
Thu 11:18:37 PM 40.9125 -77.9850 North 425 489 29,000  Level New York Center
Thu 11:19:37 PM 41.0097 -77.8933 35° Northeast 409 471 29,000  Level New York Center
Thu 11:20:38 PM 41.0919 -77.7725 48° Northeast 420 483 29,000  Level New York Center
Thu 11:21:35 PM 41.1742 -77.6514 48° Northeast 428 493 29,000  Level New York Center
Thu 11:22:36 PM 41.2561 -77.5272 49° Northeast 438 504 29,000  Level New York Center
Thu 11:23:37 PM 41.3361 -77.4053 49° Northeast 438 504 29,000  Level New York Center
Thu 11:24:38 PM 41.4158 -77.2833 49° Northeast 438 504 29,000  Level New York Center
Thu 11:25:36 PM 41.4953 -77.1608 49° Northeast 438 504 29,000  Level New York Center
Thu 11:26:38 PM 41.5764 -77.0436 47° Northeast 438 504 29,000 -400 Level New York Center
Thu 11:27:36 PM 41.6514 -76.9256 50° Northeast 431 496 28,200 -1,169 Descending New York Center
Thu 11:28:36 PM 41.7283 -76.8050 49° Northeast 426 490 26,700 -1,567 Descending New York Center
Thu 11:30:13 PM 41.8522 -76.6186 48° Northeast 430 495 24,100 -1,032 Descending Boston Center
Thu 11:31:13 PM 41.9272 -76.5036 49° Northeast 420 483 24,000 -50 Descending Boston Center
Thu 11:32:13 PM 42.0025 -76.3825 50° Northeast 415 478 24,000  Level Boston Center
Thu 11:33:13 PM 42.0839 -76.2589 48° Northeast 415 478 24,000  Level Boston Center
Thu 11:34:13 PM 42.1567 -76.1400 50° Northeast 415 478 24,000  Level Boston Center
Thu 11:35:13 PM 42.2067 -76.0056 63° Northeast 403 464 24,000  Level Boston Center
Thu 11:36:13 PM 42.2528 -75.8681 66° East 398 458 24,000  Level Boston Center
Thu 11:37:13 PM 42.2939 -75.7494 65° Northeast 390 449 24,000 -400 Level Boston Center
Thu 11:38:13 PM 42.3289 -75.6108 71° East 390 449 23,200 -900 Descending Boston Center
Thu 11:39:13 PM 42.3642 -75.4694 71° East 385 443 22,200 -1,100 Descending Boston Center
Thu 11:40:13 PM 42.3947 -75.3331 73° East 380 437 21,000 -1,200 Descending Boston Center
Thu 11:41:13 PM 42.4272 -75.1994 72° East 380 437 19,800 -1,500 Descending Boston Center
Thu 11:42:13 PM 42.4575 -75.0658 73° East 373 429 18,000 -1,600 Descending Boston Center
Thu 11:43:13 PM 42.4875 -74.9403 72° East 356 410 16,600 -1,600 Descending Boston Center
Thu 11:43:43 PM 42.5058 -74.8622 72° East 342 394 15,600 -1,400 Descending Boston Center
Thu 11:44:13 PM 42.5150 -74.8231 72° East 340 391 15,200 -1,254 Descending Boston Center
Thu 11:44:50 PM 42.5336 -74.7336 74° East 332 382 14,200 -1,469 Descending Boston Center
Thu 11:45:51 PM 42.5608 -74.6192 72° East 323 372 12,800 -1,465 Descending Boston Center
Thu 11:46:57 PM 42.5925 -74.4906 71° East 316 364 11,100 -850 Descending Boston Center
Thu 11:47:58 PM 42.6400 -74.3903 57° Northeast 310 357 11,000 -148 Descending Boston Center
Thu 11:48:59 PM 42.6894 -74.2958 55° Northeast 312 359 10,800 -843 Descending Boston Center
Thu 11:49:59 PM 42.7347 -74.2067 55° Northeast 287 330 9,300 -1,983 Descending Boston Center
Thu 11:51:00 PM 42.7756 -74.1203 57° Northeast 266 306 6,800 -2,262 Descending Boston Center
Thu 11:52:01 PM 42.8164 -74.0364 56° Northeast 263 303 4,700 -1,884 Descending Boston Center
Thu 11:53:01 PM 42.8572 -73.9553 56° Northeast 259 298 3,000 -843 Descending Boston Center
Thu 11:54:02 PM 42.8956 -73.8828 54° Northeast 201 231 3,000  Level Boston Center
Thu 11:54:36 PM 42.8981 -73.8544 83° East 203 234 3,000 -632 Level Boston Center
Thu 11:55:37 PM 42.8650 -73.8197 142° Southeast 132 152 2,000 -984 Descending Boston Center

Login

Don't have an account? Register now (free) for customized features, flight alerts, and more!